Time;durP1;ratioP1;P1;durP2;ratioP2;P2;SDS_P1;SDS_P2;PMS_P1;PMS_P2;Temp;Humidity;BMP_temperature;BMP_pressure;BME280_temperature;BME280_humidity;BME280_pressure;Samples;Min_cycle;Max_cycle;Signal;HPM_P1;HPM_P2
2023/07/08 00:00:54;;;;;;;7.97;3.88;;;17.50;99.90;;;;;;5093706;28;20048;-39
2023/07/08 00:03:20;;;;;;;;;;;17.50;99.90;;;;;;5094441;28;20432;-41
2023/07/08 00:05:47;;;;;;;7.47;4.32;;;17.40;99.90;;;;;;5093490;28;19973;-40
2023/07/08 00:08:14;;;;;;;6.82;4.75;;;17.40;99.90;;;;;;5093404;28;20123;-39
2023/07/08 00:10:40;;;;;;;7.32;4.40;;;17.40;99.90;;;;;;5093463;28;20048;-38
2023/07/08 00:13:08;;;;;;;6.70;4.30;;;17.30;99.90;;;;;;5093368;28;20040;-40
2023/07/08 00:15:33;;;;;;;;;;;17.30;99.90;;;;;;5092355;28;20732;-39
2023/07/08 00:18:00;;;;;;;8.95;4.25;;;17.30;99.90;;;;;;5093408;28;20404;-40
2023/07/08 00:20:32;;;;;;;5.63;4.32;;;17.30;99.90;;;;;;5093215;28;20032;-40
2023/07/08 00:23:00;;;;;;;8.07;4.35;;;17.30;99.90;;;;;;5093448;28;20044;-42
2023/07/08 00:25:27;;;;;;;6.55;4.38;;;17.30;99.90;;;;;;5093231;28;20048;-39
2023/07/08 00:27:52;;;;;;;5.45;4.80;;;17.20;99.90;;;;;;5093266;28;20044;-39
2023/07/08 00:30:22;;;;;;;6.72;4.68;;;17.20;99.90;;;;;;5093418;28;20108;-39
2023/07/08 00:32:53;;;;;;;5.35;4.85;;;17.20;99.90;;;;;;5093331;28;20065;-39
2023/07/08 00:35:20;;;;;;;6.75;4.40;;;17.10;99.90;;;;;;5091977;28;20165;-40
2023/07/08 00:37:46;;;;;;;6.50;4.68;;;17.10;99.90;;;;;;5093261;28;20157;-39
2023/07/08 00:40:19;;;;;;;6.07;4.40;;;17.10;99.90;;;;;;5091866;28;20040;-39
2023/07/08 00:42:46;;;;;;;6.80;4.53;;;17.00;99.90;;;;;;5093357;28;20044;-39
2023/07/08 00:45:35;;;;;;;5.22;4.43;;;17.00;99.90;;;;;;5093107;28;20119;-40
2023/07/08 00:48:21;;;;;;;6.15;4.72;;;17.00;99.90;;;;;;5092734;28;20126;-39
2023/07/08 00:50:47;;;;;;;6.55;4.43;;;17.00;99.90;;;;;;5091818;28;20505;-39
2023/07/08 00:53:24;;;;;;;6.85;4.78;;;16.90;99.90;;;;;;5092918;28;20083;-39
2023/07/08 00:55:51;;;;;;;5.25;4.75;;;16.90;99.90;;;;;;5092880;28;20056;-40
2023/07/08 00:58:19;;;;;;;7.53;4.63;;;16.90;99.90;;;;;;5093057;28;20386;-39
2023/07/08 01:00:45;;;;;;;7.25;5.18;;;16.80;99.90;;;;;;5093127;28;20123;-40
2023/07/08 01:03:11;;;;;;;7.82;4.97;;;16.80;99.90;;;;;;5092925;28;20119;-39
2023/07/08 01:05:38;;;;;;;7.95;4.60;;;16.80;99.90;;;;;;5091934;28;20036;-41
2023/07/08 01:08:06;;;;;;;5.90;4.32;;;16.80;99.90;;;;;;5092920;28;20410;-40
2023/07/08 01:10:52;;;;;;;6.13;4.63;;;16.70;99.90;;;;;;5092685;28;20101;-40
2023/07/08 01:13:19;;;;;;;7.72;4.95;;;16.70;99.90;;;;;;5091814;28;20117;-40
2023/07/08 01:15:48;;;;;;;7.18;4.55;;;16.70;99.90;;;;;;5091451;28;20036;-39
2023/07/08 01:18:16;;;;;;;6.10;4.47;;;16.70;99.90;;;;;;5092692;28;20048;-39
2023/07/08 01:20:42;;;;;;;8.43;5.35;;;16.60;99.90;;;;;;5092740;28;20047;-40
2023/07/08 01:23:09;;;;;;;4.80;4.35;;;16.60;99.90;;;;;;5092793;28;20037;-39
2023/07/08 01:25:35;;;;;;;5.72;4.97;;;16.60;99.90;;;;;;5092628;28;20096;-38
2023/07/08 01:28:02;;;;;;;6.72;4.57;;;16.60;99.90;;;;;;5092558;28;20060;-38
2023/07/08 01:30:30;;;;;;;8.30;5.45;;;16.60;99.90;;;;;;5092459;28;20097;-39
2023/07/08 01:33:00;;;;;;;8.85;5.13;;;16.50;99.90;;;;;;5092584;28;20032;-39
2023/07/08 01:35:26;;;;;;;6.40;5.38;;;16.40;99.90;;;;;;5092625;28;20047;-40
2023/07/08 01:37:56;;;;;;;6.22;5.10;;;16.40;99.90;;;;;;5092272;28;20489;-40
2023/07/08 01:40:32;;;;;;;6.28;5.25;;;16.40;99.90;;;;;;5092606;28;20040;-39
2023/07/08 01:42:58;;;;;;;9.27;5.57;;;16.40;99.90;;;;;;5092228;28;20402;-39
2023/07/08 01:45:30;;;;;;;7.47;5.47;;;16.30;99.90;;;;;;5092508;28;20040;-39
2023/07/08 01:48:02;;;;;;;6.95;5.50;;;16.30;99.90;;;;;;5092488;28;20032;-38
2023/07/08 01:50:29;;;;;;;5.57;4.97;;;16.30;99.90;;;;;;5092438;28;20036;-39
2023/07/08 01:52:58;;;;;;;7.27;5.13;;;16.20;99.90;;;;;;5090994;28;20505;-39
2023/07/08 01:55:24;;;;;;;7.55;5.57;;;16.20;99.90;;;;;;5091876;28;20094;-40
2023/07/08 01:57:54;;;;;;;6.90;5.25;;;16.20;99.90;;;;;;5092307;28;20094;-39
2023/07/08 02:00:20;;;;;;;9.95;5.43;;;16.20;99.90;;;;;;5092436;28;20404;-39
2023/07/08 02:02:46;;;;;;;7.55;5.75;;;16.20;99.90;;;;;;5093752;28;20070;-40
2023/07/08 02:05:12;;;;;;;6.18;5.22;;;16.10;99.90;;;;;;5095130;28;20044;-40
2023/07/08 02:07:38;;;;;;;7.43;5.43;;;16.10;99.90;;;;;;5095728;28;20367;-40
2023/07/08 02:10:04;;;;;;;6.35;5.70;;;16.10;99.90;;;;;;5095523;28;20047;-40
2023/07/08 02:12:30;;;;;;;8.93;5.85;;;16.10;99.90;;;;;;5095542;28;20549;-39
2023/07/08 02:14:55;;;;;;;7.38;5.38;;;16.10;99.90;;;;;;5095831;28;20044;-39
2023/07/08 02:17:21;;;;;;;6.20;5.60;;;16.00;99.90;;;;;;5094864;28;20039;-39
2023/07/08 02:19:47;;;;;;;9.68;6.07;;;16.00;99.90;;;;;;5096233;28;20391;-38
2023/07/08 02:22:12;;;;;;;6.20;5.18;;;16.00;99.90;;;;;;5095942;28;20044;-41
2023/07/08 02:24:38;;;;;;;7.28;5.53;;;16.00;99.90;;;;;;5095639;28;20482;-39
2023/07/08 02:27:04;;;;;;;9.00;5.85;;;15.90;99.90;;;;;;5095677;28;20094;-38
2023/07/08 02:29:31;;;;;;;6.15;5.50;;;15.90;99.90;;;;;;5094204;28;20520;-39
2023/07/08 02:31:57;;;;;;;7.18;5.60;;;15.90;99.90;;;;;;5095709;28;20391;-39
2023/07/08 02:34:23;;;;;;;6.95;5.70;;;15.90;99.90;;;;;;5095874;28;20094;-39
2023/07/08 02:36:48;;;;;;;8.48;5.60;;;15.80;99.90;;;;;;5095375;28;20496;-39
2023/07/08 02:39:14;;;;;;;7.97;5.80;;;15.80;99.90;;;;;;5095424;28;20051;-39
2023/07/08 02:41:40;;;;;;;8.43;5.97;;;15.80;99.90;;;;;;5095381;28;20475;-39
2023/07/08 02:44:05;;;;;;;6.93;5.50;;;15.80;99.90;;;;;;5095386;28;20040;-41
2023/07/08 02:46:31;;;;;;;7.18;5.80;;;15.70;99.90;;;;;;5095354;28;20040;-40
2023/07/08 02:48:56;;;;;;;7.03;5.93;;;15.70;99.90;;;;;;5094902;28;20043;-38
2023/07/08 02:51:22;;;;;;;6.90;5.65;;;15.70;99.90;;;;;;5093900;28;20040;-40
2023/07/08 02:53:49;;;;;;;6.55;5.80;;;15.70;99.90;;;;;;5094864;28;20394;-40
2023/07/08 02:56:15;;;;;;;8.18;6.03;;;15.70;99.90;;;;;;5094664;28;20052;-40
2023/07/08 02:58:40;;;;;;;6.90;5.88;;;15.70;99.90;;;;;;5094968;28;20055;-39
2023/07/08 03:01:06;;;;;;;6.40;5.78;;;15.70;99.90;;;;;;5094913;28;20047;-39
2023/07/08 03:03:32;;;;;;;8.63;5.50;;;15.60;99.90;;;;;;5094751;28;20044;-39
2023/07/08 03:06:02;;;;;;;7.18;6.10;;;15.60;99.90;;;;;;5094859;28;20048;-38
2023/07/08 03:08:29;;;;;;;6.97;6.30;;;15.60;99.90;;;;;;5094669;28;20048;-39
2023/07/08 03:11:00;;;;;;;6.32;5.72;;;15.60;99.90;;;;;;5094633;28;20097;-40
2023/07/08 03:13:26;;;;;;;9.23;5.93;;;15.60;99.90;;;;;;5094369;28;20048;-40
2023/07/08 03:15:54;;;;;;;8.10;5.80;;;15.60;99.90;;;;;;5094259;28;20502;-39
2023/07/08 03:18:21;;;;;;;9.20;6.05;;;15.60;99.90;;;;;;5094425;28;20071;-39
2023/07/08 03:20:48;;;;;;;9.32;6.25;;;15.60;99.90;;;;;;5093043;28;20052;-40
2023/07/08 03:23:14;;;;;;;8.15;5.95;;;15.60;99.90;;;;;;5094212;28;20530;-39
2023/07/08 03:25:39;;;;;;;9.50;6.25;;;15.50;99.90;;;;;;5094665;28;20083;-40
2023/07/08 03:28:06;;;;;;;9.23;5.72;;;15.60;99.90;;;;;;5094467;28;20478;-40
2023/07/08 03:30:32;;;;;;;8.25;5.65;;;15.60;99.90;;;;;;5094090;28;20501;-39
2023/07/08 03:32:59;;;;;;;7.22;6.30;;;15.50;99.90;;;;;;5092992;28;20083;-41
2023/07/08 03:35:25;;;;;;;7.85;5.90;;;15.50;99.90;;;;;;5093907;28;20490;-39
2023/07/08 03:37:51;;;;;;;7.45;5.72;;;15.60;99.90;;;;;;5094034;28;20052;-41
2023/07/08 03:40:17;;;;;;;8.95;6.40;;;15.60;99.90;;;;;;5094224;28;20406;-39
2023/07/08 03:42:42;;;;;;;8.27;6.03;;;15.60;99.90;;;;;;5094138;28;20041;-39
2023/07/08 03:45:09;;;;;;;7.75;6.50;;;15.60;99.90;;;;;;5094383;28;20290;-39
2023/07/08 03:47:34;;;;;;;6.53;5.75;;;15.60;99.90;;;;;;5094298;28;20055;-38
2023/07/08 03:50:00;;;;;;;11.35;6.38;;;15.60;99.90;;;;;;5093880;28;20044;-39
2023/07/08 03:52:26;;;;;;;7.55;5.70;;;15.60;99.90;;;;;;5092806;28;20390;-39
2023/07/08 03:54:51;;;;;;;8.32;6.32;;;15.70;99.90;;;;;;5092393;28;20409;-39
2023/07/08 03:57:17;;;;;;;8.70;6.05;;;15.70;99.90;;;;;;5093742;28;20036;-39
2023/07/08 03:59:43;;;;;;;7.82;5.63;;;15.70;99.90;;;;;;5092911;28;20119;-40
2023/07/08 04:02:11;;;;;;;7.05;5.88;;;15.70;99.90;;;;;;5093933;28;20494;-39
2023/07/08 04:04:37;;;;;;;8.00;6.20;;;15.70;99.90;;;;;;5093695;28;20044;-39
2023/07/08 04:07:07;;;;;;;8.23;6.00;;;15.80;99.90;;;;;;5094011;28;20044;-42
2023/07/08 04:09:32;;;;;;;11.27;6.28;;;15.80;99.90;;;;;;5094161;28;20080;-40
2023/07/08 04:11:59;;;;;;;10.18;6.20;;;15.80;99.90;;;;;;5093546;28;20454;-38
2023/07/08 04:14:25;;;;;;;7.70;5.72;;;15.90;99.90;;;;;;5092170;28;20080;-41
2023/07/08 04:16:56;;;;;;;7.22;6.43;;;15.80;99.90;;;;;;5093312;28;20074;-39
2023/07/08 04:19:23;;;;;;;8.48;6.03;;;15.90;99.90;;;;;;5093573;28;20044;-39
2023/07/08 04:21:48;;;;;;;7.50;6.13;;;15.90;99.90;;;;;;5093526;28;20044;-39
2023/07/08 04:24:16;;;;;;;7.50;5.65;;;15.90;99.90;;;;;;5093467;28;20093;-39
2023/07/08 04:26:42;;;;;;;7.72;5.90;;;16.00;99.90;;;;;;5092768;28;20456;-40
2023/07/08 04:29:19;;;;;;;8.30;5.57;;;16.00;99.90;;;;;;5093980;28;20040;-40
2023/07/08 04:31:46;;;;;;;6.85;5.68;;;16.10;99.90;;;;;;5093217;28;20160;-39
2023/07/08 04:34:12;;;;;;;6.85;6.03;;;16.20;99.90;;;;;;5093302;28;20123;-39
2023/07/08 04:36:38;;;;;;;6.63;5.80;;;16.40;99.90;;;;;;5093129;28;20501;-39
2023/07/08 04:39:05;;;;;;;8.13;5.53;;;16.40;99.90;;;;;;5093232;28;20078;-39
2023/07/08 04:41:31;;;;;;;6.30;5.00;;;17.00;99.90;;;;;;5092048;28;20052;-39
2023/07/08 04:44:00;;;;;;;7.40;5.78;;;17.90;99.90;;;;;;5092907;28;20411;-39
2023/07/08 04:46:38;;;;;;;7.13;5.70;;;18.80;99.90;;;;;;5093186;28;20119;-40
2023/07/08 04:49:11;;;;;;;6.28;5.65;;;19.60;99.90;;;;;;5091586;28;20097;-39
2023/07/08 04:51:37;;;;;;;6.65;5.25;;;19.80;99.90;;;;;;5092968;28;20119;-41
2023/07/08 04:54:03;;;;;;;6.67;5.40;;;20.50;99.90;;;;;;5092473;28;20383;-39
2023/07/08 04:56:41;;;;;;;7.38;5.47;;;20.90;99.90;;;;;;5091758;28;20073;-40
2023/07/08 04:59:10;;;;;;;;;;;21.10;99.90;;;;;;5093482;28;20040;-41
2023/07/08 05:01:36;;;;;;;5.63;5.10;;;21.60;99.90;;;;;;5093259;28;19964;-39
2023/07/08 05:04:05;;;;;;;5.90;4.72;;;22.00;99.90;;;;;;5093036;28;20394;-40
2023/07/08 05:06:30;;;;;;;6.47;4.68;;;22.00;99.90;;;;;;5091823;28;20047;-41
2023/07/08 05:08:57;;;;;;;5.82;4.93;;;22.20;99.90;;;;;;5092675;28;20036;-41
2023/07/08 05:11:23;;;;;;;5.20;4.63;;;22.50;99.90;;;;;;5092993;28;20490;-41
2023/07/08 05:13:49;;;;;;;6.03;5.00;;;22.70;99.90;;;;;;5093153;28;20040;-42
2023/07/08 05:16:14;;;;;;;6.50;4.75;;;22.80;99.90;;;;;;5092895;28;20044;-40
2023/07/08 05:18:40;;;;;;;6.53;4.70;;;22.80;99.90;;;;;;5092666;28;20517;-41
2023/07/08 05:21:06;;;;;;;6.82;4.60;;;23.20;99.90;;;;;;5092788;28;20513;-39
2023/07/08 05:23:32;;;;;;;6.22;4.50;;;23.70;99.90;;;;;;5092594;28;20279;-42
2023/07/08 05:26:02;;;;;;;5.40;4.75;;;24.00;99.90;;;;;;5092721;28;20618;-39
2023/07/08 05:28:28;;;;;;;4.57;4.18;;;24.10;99.90;;;;;;5092738;28;20036;-40
2023/07/08 05:30:57;;;;;;;5.60;4.75;;;24.10;99.90;;;;;;5092583;28;20139;-40
2023/07/08 05:33:27;;;;;;;5.57;4.65;;;24.00;99.90;;;;;;5092344;28;20446;-39
2023/07/08 05:35:53;;;;;;;6.13;4.28;;;24.00;99.90;;;;;;5091035;28;20139;-41
2023/07/08 05:38:19;;;;;;;6.18;4.72;;;24.30;99.90;;;;;;5092852;28;20498;-40
2023/07/08 05:40:53;;;;;;;6.30;4.28;;;24.50;99.90;;;;;;5096146;28;20168;-41
2023/07/08 05:43:19;;;;;;;6.10;4.28;;;24.80;99.90;;;;;;5095557;28;20487;-43
2023/07/08 05:45:45;;;;;;;4.78;4.22;;;25.20;99.90;;;;;;5095832;28;20044;-40
2023/07/08 05:48:11;;;;;;;5.07;4.55;;;25.10;99.90;;;;;;5095543;28;20051;-41
2023/07/08 05:50:36;;;;;;;5.65;4.40;;;25.40;99.90;;;;;;5095629;28;20043;-40
2023/07/08 05:53:02;;;;;;;5.22;4.18;;;25.00;99.90;;;;;;5094575;28;20053;-40
2023/07/08 05:55:28;;;;;;;5.00;4.47;;;25.20;99.90;;;;;;5095308;28;20048;-40
2023/07/08 05:57:54;;;;;;;5.40;3.95;;;24.80;99.90;;;;;;5095651;28;20097;-40
2023/07/08 06:00:19;;;;;;;4.68;3.88;;;25.00;99.70;;;;;;5095529;28;20071;-40
2023/07/08 06:02:45;;;;;;;4.10;3.70;;;25.30;99.90;;;;;;5095499;28;20040;-40
2023/07/08 06:05:11;;;;;;;4.40;3.90;;;25.50;99.60;;;;;;5095470;28;20044;-40
2023/07/08 06:07:36;;;;;;;4.68;4.00;;;25.90;99.40;;;;;;5095446;28;20119;-42
2023/07/08 06:10:02;;;;;;;5.05;3.97;;;26.10;99.30;;;;;;5095550;28;20078;-41
2023/07/08 06:12:30;;;;;;;4.65;4.20;;;25.70;98.80;;;;;;5095464;28;20048;-43
2023/07/08 06:14:55;;;;;;;;;;;25.80;98.30;;;;;;5095659;28;20036;-42
2023/07/08 06:17:21;;;;;;;5.32;3.92;;;25.80;98.80;;;;;;5095058;28;20032;-42
2023/07/08 06:19:47;;;;;;;8.48;3.75;;;26.10;98.50;;;;;;5093893;28;20139;-41
2023/07/08 06:22:13;;;;;;;4.90;4.35;;;26.70;98.40;;;;;;5094872;28;20450;-42
2023/07/08 06:24:39;;;;;;;4.28;3.90;;;26.70;97.40;;;;;;5095169;28;20043;-40
2023/07/08 06:27:05;;;;;;;4.82;3.85;;;27.00;98.10;;;;;;5095450;28;20378;-40
2023/07/08 06:29:30;;;;;;;4.32;3.67;;;27.00;97.20;;;;;;5095532;28;20040;-40
2023/07/08 06:31:56;;;;;;;5.22;3.78;;;27.00;97.40;;;;;;5095451;28;20040;-40
2023/07/08 06:34:23;;;;;;;4.50;3.67;;;27.10;97.40;;;;;;5095467;28;20367;-42
2023/07/08 06:36:49;;;;;;;3.50;3.17;;;27.20;97.30;;;;;;5093726;28;20508;-40
2023/07/08 06:39:16;;;;;;;3.95;3.42;;;27.30;97.20;;;;;;5094999;28;20036;-40
2023/07/08 06:41:42;;;;;;;6.43;3.83;;;27.30;96.70;;;;;;5093378;28;20051;-40
2023/07/08 06:44:08;;;;;;;4.45;3.58;;;27.40;96.80;;;;;;5093346;28;20048;-41
2023/07/08 06:46:34;;;;;;;4.65;3.60;;;27.50;96.60;;;;;;5095079;28;20412;-40
2023/07/08 06:49:00;;;;;;;4.03;3.60;;;27.00;96.20;;;;;;5094384;28;20124;-42
2023/07/08 06:51:26;;;;;;;5.43;3.38;;;27.00;96.70;;;;;;5094855;28;20328;-41
2023/07/08 06:53:52;;;;;;;5.82;3.65;;;27.50;96.30;;;;;;5094255;28;20449;-40
2023/07/08 06:56:17;;;;;;;4.25;3.03;;;27.10;96.00;;;;;;5094148;28;20087;-40
2023/07/08 06:58:43;;;;;;;3.90;3.47;;;27.50;96.10;;;;;;5094420;28;20047;-41
2023/07/08 07:01:09;;;;;;;3.80;3.17;;;27.40;95.80;;;;;;5092824;28;20048;-43
2023/07/08 07:03:35;;;;;;;5.90;3.35;;;27.00;95.90;;;;;;5094077;28;20044;-41
2023/07/08 07:06:01;;;;;;;3.22;2.70;;;27.30;95.90;;;;;;5092831;28;20044;-40
2023/07/08 07:08:27;;;;;;;5.32;3.20;;;27.30;96.00;;;;;;5094085;28;20048;-42
2023/07/08 07:10:52;;;;;;;5.07;3.10;;;27.70;95.80;;;;;;5095148;28;20048;-44
2023/07/08 07:13:18;;;;;;;4.88;2.97;;;27.50;95.30;;;;;;5094031;28;20044;-40
2023/07/08 07:15:43;;;;;;;4.20;3.03;;;27.50;95.30;;;;;;5094116;28;20127;-41
2023/07/08 07:18:09;;;;;;;3.75;3.45;;;27.20;95.30;;;;;;5093914;28;20040;-40
2023/07/08 07:20:37;;;;;;;4.10;3.20;;;27.40;95.60;;;;;;5094124;28;20040;-40
2023/07/08 07:23:03;;;;;;;4.93;3.03;;;27.30;95.60;;;;;;5094553;28;20440;-40
2023/07/08 07:25:29;;;;;;;4.28;3.05;;;27.50;95.40;;;;;;5094577;28;20093;-40
2023/07/08 07:27:55;;;;;;;4.30;3.13;;;27.40;95.50;;;;;;5094463;28;20040;-40
2023/07/08 07:30:20;;;;;;;4.22;3.10;;;27.90;95.40;;;;;;5094428;28;20040;-42
2023/07/08 07:32:47;;;;;;;5.75;3.20;;;27.50;95.30;;;;;;5075878;28;20044;-41
2023/07/08 07:35:14;;;;;;;3.20;2.90;;;27.30;95.10;;;;;;5094383;28;20424;-40
2023/07/08 07:37:41;;;;;;;;;;;27.20;95.20;;;;;;5093583;28;20121;-42
2023/07/08 07:40:13;;;;;;;4.03;3.22;;;27.50;94.90;;;;;;5093074;28;19943;-42
2023/07/08 07:42:40;;;;;;;3.10;2.80;;;27.50;95.20;;;;;;5093962;28;20044;-40
2023/07/08 07:45:06;;;;;;;6.03;2.73;;;27.60;95.60;;;;;;5094297;28;20127;-41
2023/07/08 07:47:32;;;;;;;4.88;3.10;;;27.60;95.10;;;;;;5093791;28;20043;-41
2023/07/08 07:49:59;;;;;;;5.40;3.08;;;27.00;95.10;;;;;;5094020;28;20044;-42
2023/07/08 07:52:25;;;;;;;3.75;3.05;;;26.60;95.70;;;;;;5094057;28;20039;-40
2023/07/08 07:54:55;;;;;;;4.80;3.00;;;26.50;95.80;;;;;;5093982;28;20401;-42
2023/07/08 07:57:21;;;;;;;4.57;3.30;;;26.50;96.20;;;;;;5093834;28;20051;-40
2023/07/08 07:59:49;;;;;;;5.18;3.05;;;26.10;96.10;;;;;;5093441;28;20454;-42
2023/07/08 08:02:15;;;;;;;3.30;3.00;;;25.90;96.20;;;;;;5093487;28;20565;-40
2023/07/08 08:04:41;;;;;;;4.38;3.40;;;25.80;96.30;;;;;;5092594;28;20444;-40
2023/07/08 08:07:07;;;;;;;3.65;3.10;;;25.80;96.40;;;;;;5093537;28;20048;-41
2023/07/08 08:09:35;;;;;;;6.13;3.10;;;;;;;;;;5075578;28;20040;-40
2023/07/08 08:12:02;;;;;;;4.95;3.08;;;;;;;;;;5093463;28;20068;-40
2023/07/08 08:14:28;;;;;;;3.58;3.17;;;;;;;;;;5093211;28;20048;-40
2023/07/08 08:16:54;;;;;;;5.53;2.97;;;26.10;96.70;;;;;;5093485;28;20511;-40
2023/07/08 08:19:20;;;;;;;4.35;3.20;;;26.10;97.00;;;;;;5093386;28;20040;-41
2023/07/08 08:21:45;;;;;;;4.57;3.20;;;26.10;97.40;;;;;;5092331;28;20097;-40
2023/07/08 08:24:11;;;;;;;6.72;3.20;;;;;;;;;;5093275;28;20040;-41
2023/07/08 08:26:37;;;;;;;3.65;3.30;;;26.20;96.30;;;;;;5093455;28;20051;-41
2023/07/08 08:29:03;;;;;;;7.55;3.40;;;26.40;96.60;;;;;;5093138;28;20040;-40
2023/07/08 08:31:30;;;;;;;3.13;2.88;;;26.70;96.90;;;;;;5093341;28;20565;-40
2023/07/08 08:33:56;;;;;;;6.15;3.17;;;26.80;96.30;;;;;;5093285;28;20451;-42
2023/07/08 08:36:22;;;;;;;3.58;3.28;;;26.50;96.70;;;;;;5093069;28;20092;-41
2023/07/08 08:38:48;;;;;;;4.90;3.17;;;26.70;96.90;;;;;;5093335;28;20040;-40
2023/07/08 08:41:20;;;;;;;3.45;2.88;;;26.70;96.40;;;;;;5092992;28;20115;-42
2023/07/08 08:43:48;;;;;;;5.05;3.03;;;27.00;96.80;;;;;;5093357;28;20048;-41
2023/07/08 08:46:34;;;;;;;3.88;3.40;;;27.10;96.40;;;;;;5092776;28;20510;-40
2023/07/08 08:49:13;;;;;;;4.30;3.08;;;27.30;96.70;;;;;;5092933;28;20048;-40
2023/07/08 08:51:39;;;;;;;3.33;3.00;;;27.30;96.80;;;;;;5091999;28;20052;-41
2023/07/08 08:54:05;;;;;;;6.07;3.20;;;27.40;96.90;;;;;;5092696;28;20040;-40
2023/07/08 08:56:39;;;;;;;3.33;2.92;;;27.20;96.20;;;;;;5074451;28;20325;-41
2023/07/08 08:59:52;;;;;;;3.47;3.00;;;27.20;96.90;;;;;;5092918;28;20457;-40
2023/07/08 09:02:18;;;;;;;4.93;3.20;;;27.50;97.00;;;;;;5090338;28;20044;-42
2023/07/08 09:04:44;;;;;;;5.30;3.28;;;27.50;96.80;;;;;;5090484;28;20050;-40
2023/07/08 09:07:16;;;;;;;5.95;3.40;;;27.40;96.80;;;;;;5090471;28;20052;-41
2023/07/08 09:10:01;;;;;;;4.60;3.17;;;27.50;96.50;;;;;;5090939;28;20050;-43
2023/07/08 09:12:28;;;;;;;3.47;3.05;;;27.40;96.50;;;;;;5093191;28;20094;-40
2023/07/08 09:14:55;;;;;;;3.63;3.03;;;27.60;97.20;;;;;;5094654;28;20483;-40
2023/07/08 09:17:34;;;;;;;5.28;3.35;;;27.80;96.70;;;;;;5094396;28;20040;-41
2023/07/08 09:20:22;;;;;;;5.53;3.28;;;27.60;96.30;;;;;;5094568;28;20084;-40
2023/07/08 09:23:03;;;;;;;3.35;3.05;;;27.90;96.80;;;;;;5094540;28;20176;-42
2023/07/08 09:26:04;;;;;;;4.68;3.25;;;28.20;96.40;;;;;;5094643;28;20133;-41
2023/07/08 09:28:41;;;;;;;6.97;3.67;;;28.30;96.70;;;;;;5062686;28;20139;-43
2023/07/08 09:31:11;;;;;;;4.43;3.38;;;28.40;96.00;;;;;;5094408;28;20044;-41
2023/07/08 09:33:38;;;;;;;3.50;3.20;;;28.30;96.20;;;;;;5095754;28;20117;-41
2023/07/08 09:36:21;;;;;;;3.85;3.17;;;28.60;95.70;;;;;;5096538;28;20051;-40
2023/07/08 09:38:50;;;;;;;3.63;2.90;;;28.40;95.20;;;;;;5095216;28;20127;-40
2023/07/08 09:41:30;;;;;;;5.05;3.33;;;28.50;95.60;;;;;;5096622;28;20089;-40
2023/07/08 09:44:29;;;;;;;6.10;3.60;;;28.70;95.80;;;;;;5096558;28;20044;-41
2023/07/08 09:46:57;;;;;;;9.25;3.22;;;28.50;95.10;;;;;;5096476;28;20075;-41
2023/07/08 09:49:33;;;;;;;3.40;3.10;;;28.90;94.70;;;;;;5096359;28;20086;-41
2023/07/08 09:52:00;;;;;;;3.30;2.90;;;28.60;94.50;;;;;;5096074;28;20549;-42
2023/07/08 09:54:26;;;;;;;6.85;3.60;;;28.90;95.70;;;;;;5095630;28;20521;-42
2023/07/08 09:57:17;;;;;;;3.45;3.17;;;29.00;95.00;;;;;;5095916;28;20478;-45
2023/07/08 09:59:52;;;;;;;5.57;3.20;;;28.90;95.40;;;;;;5095768;28;20048;-40
2023/07/08 10:02:20;;;;;;;5.28;3.22;;;29.00;94.70;;;;;;5096104;28;20043;-42
2023/07/08 10:04:46;;;;;;;5.20;3.38;;;29.00;94.50;;;;;;5096174;28;20119;-40
2023/07/08 10:07:16;;;;;;;3.58;3.28;;;29.00;94.80;;;;;;5095891;28;20466;-40
2023/07/08 10:09:42;;;;;;;3.58;3.13;;;29.40;95.40;;;;;;5096057;28;20052;-41
2023/07/08 10:12:13;;;;;;;4.00;3.40;;;29.40;95.40;;;;;;5095647;28;20113;-43
2023/07/08 10:14:50;;;;;;;4.32;3.40;;;29.30;95.40;;;;;;5095852;28;20048;-41
2023/07/08 10:17:18;;;;;;;4.90;3.15;;;29.50;94.90;;;;;;5095418;28;20486;-40
2023/07/08 10:19:44;;;;;;;4.68;3.10;;;29.50;94.60;;;;;;5095527;28;20047;-40
2023/07/08 10:22:19;;;;;;;4.53;3.30;;;29.50;94.00;;;;;;5095732;28;20397;-41
2023/07/08 10:25:06;;;;;;;3.88;2.95;;;29.70;94.10;;;;;;5095146;28;20044;-40
2023/07/08 10:27:39;;;;;;;;;;;29.80;94.20;;;;;;5094885;28;20490;-41
2023/07/08 10:30:19;;;;;;;5.10;3.30;;;29.80;94.80;;;;;;5095685;28;19919;-43
2023/07/08 10:33:17;;;;;;;4.60;3.13;;;29.80;94.40;;;;;;5095712;28;20043;-41
2023/07/08 10:35:48;;;;;;;4.63;3.45;;;30.20;94.40;;;;;;5095363;28;20050;-41
2023/07/08 10:38:16;;;;;;;3.53;3.10;;;30.00;94.00;;;;;;5093821;28;20044;-40
2023/07/08 10:40:42;;;;;;;3.67;3.17;;;29.90;94.10;;;;;;5093911;28;20554;-42
2023/07/08 10:43:26;;;;;;;4.10;3.08;;;30.10;94.10;;;;;;5094333;28;20036;-41
2023/07/08 10:46:00;;;;;;;4.05;3.63;;;30.30;94.60;;;;;;5094156;28;20055;-42
2023/07/08 10:48:29;;;;;;;3.50;3.20;;;30.30;93.90;;;;;;5095301;28;20044;-40
2023/07/08 10:51:05;;;;;;;5.18;3.25;;;30.40;94.00;;;;;;5095021;28;20406;-41
2023/07/08 10:54:03;;;;;;;5.55;3.38;;;30.40;93.60;;;;;;5095207;28;20056;-40
2023/07/08 10:57:00;;;;;;;6.85;3.30;;;30.50;93.60;;;;;;5094520;28;20084;-41
2023/07/08 10:59:47;;;;;;;5.80;3.55;;;30.40;93.50;;;;;;5094984;28;20093;-42
2023/07/08 11:02:38;;;;;;;5.88;3.55;;;30.60;93.90;;;;;;5094886;28;20048;-43
2023/07/08 11:05:27;;;;;;;3.50;3.20;;;30.60;93.40;;;;;;5094624;28;20092;-41
2023/07/08 11:08:03;;;;;;;4.35;3.10;;;30.70;93.00;;;;;;5095274;28;20051;-42
2023/07/08 11:10:46;;;;;;;5.93;3.33;;;30.70;93.40;;;;;;5094858;28;20057;-41
2023/07/08 11:13:18;;;;;;;3.72;3.30;;;30.70;92.90;;;;;;5094875;28;20096;-43
2023/07/08 11:16:18;;;;;;;3.67;3.38;;;30.70;93.30;;;;;;5094609;28;20070;-41
2023/07/08 11:18:53;;;;;;;4.75;3.20;;;31.10;93.50;;;;;;5094465;28;20044;-42
2023/07/08 11:21:28;;;;;;;5.13;3.38;;;31.20;93.60;;;;;;5094714;28;20040;-41
2023/07/08 11:24:21;;;;;;;4.28;3.63;;;31.20;93.10;;;;;;5094678;28;20044;-40
2023/07/08 11:27:05;;;;;;;7.28;4.15;;;31.40;93.50;;;;;;5094580;28;20052;-40
2023/07/08 11:29:39;;;;;;;6.50;3.90;;;31.50;91.60;;;;;;5094453;28;20044;-41
2023/07/08 11:32:06;;;;;;;4.45;3.60;;;31.50;92.40;;;;;;5094242;28;20047;-42
2023/07/08 11:34:35;;;;;;;5.85;3.67;;;31.40;92.50;;;;;;5093902;28;20036;-43
2023/07/08 11:37:02;;;;;;;5.10;3.95;;;31.50;92.50;;;;;;5075507;28;20545;-41
2023/07/08 11:39:45;;;;;;;5.13;3.80;;;31.40;92.40;;;;;;5094151;28;20115;-42
2023/07/08 11:42:35;;;;;;;3.90;3.60;;;31.50;92.70;;;;;;5094046;28;20040;-43
2023/07/08 11:45:06;;;;;;;5.30;3.83;;;31.60;92.30;;;;;;5093907;28;20043;-42
2023/07/08 11:47:37;;;;;;;4.97;4.05;;;31.80;92.40;;;;;;5093834;28;20048;-43
2023/07/08 11:50:07;;;;;;;5.25;3.97;;;31.80;92.00;;;;;;5093933;28;20486;-41
2023/07/08 11:52:34;;;;;;;4.45;3.90;;;31.80;92.20;;;;;;5093974;28;20076;-41
2023/07/08 11:55:11;;;;;;;4.95;4.00;;;32.00;92.30;;;;;;5093738;28;20048;-42
2023/07/08 11:57:41;;;;;;;6.50;3.90;;;31.90;92.30;;;;;;5092899;28;20129;-42
2023/07/08 12:00:17;;;;;;;5.28;4.05;;;31.90;91.30;;;;;;5093971;28;20040;-41
2023/07/08 12:02:51;;;;;;;5.90;4.30;;;32.10;91.40;;;;;;5093526;28;20079;-41
2023/07/08 12:05:16;;;;;;;6.80;4.18;;;32.30;91.20;;;;;;5093788;28;20093;-41
2023/07/08 12:07:48;;;;;;;5.25;4.75;;;32.40;91.10;;;;;;5093678;28;20044;-42
2023/07/08 12:10:33;;;;;;;6.10;4.47;;;32.50;90.50;;;;;;5093411;28;20066;-42
2023/07/08 12:12:59;;;;;;;4.93;4.00;;;32.30;90.50;;;;;;5093558;28;20040;-42
2023/07/08 12:15:28;;;;;;;4.80;4.00;;;32.50;90.20;;;;;;5093674;28;20119;-42
2023/07/08 12:17:56;;;;;;;4.70;4.10;;;32.60;90.40;;;;;;5093729;28;20048;-41
2023/07/08 12:20:27;;;;;;;7.97;4.40;;;32.60;90.20;;;;;;5093455;28;20123;-42
2023/07/08 12:22:52;;;;;;;6.28;4.53;;;32.60;88.10;;;;;;5093442;28;20043;-41
2023/07/08 12:25:21;;;;;;;5.03;4.60;;;32.80;89.50;;;;;;5093452;28;20081;-40
2023/07/08 12:27:47;;;;;;;7.85;5.45;;;32.70;88.80;;;;;;5093365;28;20082;-42
2023/07/08 12:30:15;;;;;;;6.37;5.50;;;33.00;88.50;;;;;;5093383;28;20056;-41
2023/07/08 12:32:42;;;;;;;5.45;5.00;;;33.00;84.60;;;;;;5093421;28;20067;-40
2023/07/08 12:35:17;;;;;;;;;;;32.90;85.30;;;;;;5093360;28;20040;-42
2023/07/08 12:37:43;;;;;;;6.45;5.10;;;33.00;84.50;;;;;;5093455;28;19920;-41
2023/07/08 12:40:10;;;;;;;5.20;4.80;;;32.90;83.60;;;;;;5093181;28;20097;-41
2023/07/08 12:42:36;;;;;;;5.22;4.82;;;33.10;85.60;;;;;;5092795;28;20444;-41
2023/07/08 12:45:02;;;;;;;5.57;5.03;;;33.20;83.20;;;;;;5093259;28;20040;-42
2023/07/08 12:47:27;;;;;;;6.97;5.00;;;33.30;84.30;;;;;;5091401;28;20048;-40
2023/07/08 12:49:53;;;;;;;5.93;4.90;;;33.30;83.60;;;;;;5093114;28;20490;-42
2023/07/08 12:52:22;;;;;;;5.33;4.83;;;33.20;82.40;;;;;;5092808;28;20086;-42
2023/07/08 12:54:48;;;;;;;5.93;5.32;;;33.10;81.90;;;;;;5092553;28;20509;-41
2023/07/08 12:57:18;;;;;;;5.65;4.97;;;33.30;82.20;;;;;;5092774;28;20044;-41
2023/07/08 12:59:44;;;;;;;6.65;5.10;;;33.50;83.00;;;;;;5092872;28;20547;-42
2023/07/08 13:02:21;;;;;;;11.75;5.45;;;33.60;81.30;;;;;;5092561;28;20036;-40